sensor_id;sensor_type;location;lat;lon;timestamp;P1;durP1;ratioP1;P2;durP2;ratioP2
15354;SDS011;7777;52.254;9.618;2023-08-01T00:01:29;1.43;;;0.77;;
15354;SDS011;7777;52.254;9.618;2023-08-01T00:03:55;5.80;;;1.10;;
15354;SDS011;7777;52.254;9.618;2023-08-01T00:06:20;1.87;;;0.83;;
15354;SDS011;7777;52.254;9.618;2023-08-01T00:08:47;3.47;;;1.00;;
15354;SDS011;7777;52.254;9.618;2023-08-01T00:11:13;3.57;;;0.90;;
15354;SDS011;7777;52.254;9.618;2023-08-01T00:13:41;0.93;;;0.87;;
15354;SDS011;7777;52.254;9.618;2023-08-01T00:16:07;1.50;;;1.23;;
15354;SDS011;7777;52.254;9.618;2023-08-01T00:18:33;1.40;;;1.00;;
15354;SDS011;7777;52.254;9.618;2023-08-01T00:21:00;6.00;;;1.00;;
15354;SDS011;7777;52.254;9.618;2023-08-01T00:23:25;1.23;;;1.00;;
15354;SDS011;7777;52.254;9.618;2023-08-01T00:25:51;1.30;;;1.00;;
15354;SDS011;7777;52.254;9.618;2023-08-01T00:31:10;3.57;;;1.17;;
15354;SDS011;7777;52.254;9.618;2023-08-01T00:33:36;1.80;;;1.20;;
15354;SDS011;7777;52.254;9.618;2023-08-01T00:36:02;1.43;;;1.00;;
15354;SDS011;7777;52.254;9.618;2023-08-01T00:38:28;1.70;;;1.10;;
15354;SDS011;7777;52.254;9.618;2023-08-01T00:40:54;5.17;;;1.07;;
15354;SDS011;7777;52.254;9.618;2023-08-01T00:43:20;1.23;;;1.00;;
15354;SDS011;7777;52.254;9.618;2023-08-01T00:45:46;1.33;;;1.00;;
15354;SDS011;7777;52.254;9.618;2023-08-01T00:48:12;1.60;;;1.10;;
15354;SDS011;7777;52.254;9.618;2023-08-01T00:50:38;1.27;;;1.00;;
15354;SDS011;7777;52.254;9.618;2023-08-01T00:53:04;3.70;;;0.60;;
15354;SDS011;7777;52.254;9.618;2023-08-01T00:55:31;1.97;;;0.90;;
15354;SDS011;7777;52.254;9.618;2023-08-01T00:57:58;3.87;;;1.17;;
15354;SDS011;7777;52.254;9.618;2023-08-01T01:00:23;3.80;;;0.70;;
15354;SDS011;7777;52.254;9.618;2023-08-01T01:02:49;1.10;;;1.00;;
15354;SDS011;7777;52.254;9.618;2023-08-01T01:05:15;2.40;;;1.03;;
15354;SDS011;7777;52.254;9.618;2023-08-01T01:07:41;5.07;;;0.70;;
15354;SDS011;7777;52.254;9.618;2023-08-01T01:10:08;2.93;;;0.77;;
15354;SDS011;7777;52.254;9.618;2023-08-01T01:12:34;10.77;;;1.33;;
15354;SDS011;7777;52.254;9.618;2023-08-01T01:15:00;1.93;;;0.70;;
15354;SDS011;7777;52.254;9.618;2023-08-01T01:17:26;5.83;;;1.00;;
15354;SDS011;7777;52.254;9.618;2023-08-01T01:19:51;2.17;;;0.70;;
15354;SDS011;7777;52.254;9.618;2023-08-01T01:22:19;1.63;;;0.93;;
15354;SDS011;7777;52.254;9.618;2023-08-01T01:24:45;1.40;;;0.77;;
15354;SDS011;7777;52.254;9.618;2023-08-01T01:27:11;0.67;;;0.50;;
15354;SDS011;7777;52.254;9.618;2023-08-01T01:29:38;2.37;;;1.00;;
15354;SDS011;7777;52.254;9.618;2023-08-01T01:32:05;7.77;;;0.97;;
15354;SDS011;7777;52.254;9.618;2023-08-01T01:34:32;5.93;;;0.90;;
15354;SDS011;7777;52.254;9.618;2023-08-01T01:36:58;0.80;;;0.60;;
15354;SDS011;7777;52.254;9.618;2023-08-01T01:39:24;1.10;;;0.60;;
15354;SDS011;7777;52.254;9.618;2023-08-01T01:41:49;1.37;;;0.50;;
15354;SDS011;7777;52.254;9.618;2023-08-01T01:44:15;0.67;;;0.57;;
15354;SDS011;7777;52.254;9.618;2023-08-01T01:46:41;5.70;;;0.67;;
15354;SDS011;7777;52.254;9.618;2023-08-01T01:49:06;0.90;;;0.60;;
15354;SDS011;7777;52.254;9.618;2023-08-01T01:51:32;0.80;;;0.60;;
15354;SDS011;7777;52.254;9.618;2023-08-01T01:53:58;0.57;;;0.50;;
15354;SDS011;7777;52.254;9.618;2023-08-01T01:56:23;0.40;;;0.40;;
15354;SDS011;7777;52.254;9.618;2023-08-01T01:58:49;0.60;;;0.47;;
15354;SDS011;7777;52.254;9.618;2023-08-01T02:01:15;1.10;;;0.70;;
15354;SDS011;7777;52.254;9.618;2023-08-01T02:03:41;2.00;;;0.80;;
15354;SDS011;7777;52.254;9.618;2023-08-01T02:06:06;0.80;;;0.57;;
15354;SDS011;7777;52.254;9.618;2023-08-01T02:08:32;4.70;;;1.00;;
15354;SDS011;7777;52.254;9.618;2023-08-01T02:10:58;0.50;;;0.50;;
15354;SDS011;7777;52.254;9.618;2023-08-01T02:13:24;1.03;;;0.83;;
15354;SDS011;7777;52.254;9.618;2023-08-01T02:15:54;0.77;;;0.50;;
15354;SDS011;7777;52.254;9.618;2023-08-01T02:18:20;1.33;;;0.67;;
15354;SDS011;7777;52.254;9.618;2023-08-01T02:20:45;0.80;;;0.40;;
15354;SDS011;7777;52.254;9.618;2023-08-01T02:23:11;1.30;;;0.50;;
15354;SDS011;7777;52.254;9.618;2023-08-01T02:25:40;0.57;;;0.30;;
15354;SDS011;7777;52.254;9.618;2023-08-01T02:28:07;0.30;;;0.30;;
15354;SDS011;7777;52.254;9.618;2023-08-01T02:30:34;1.13;;;0.40;;
15354;SDS011;7777;52.254;9.618;2023-08-01T02:33:02;1.53;;;0.33;;
15354;SDS011;7777;52.254;9.618;2023-08-01T02:35:28;0.30;;;0.20;;
15354;SDS011;7777;52.254;9.618;2023-08-01T02:37:54;0.47;;;0.40;;
15354;SDS011;7777;52.254;9.618;2023-08-01T02:40:20;2.63;;;0.40;;
15354;SDS011;7777;52.254;9.618;2023-08-01T02:42:47;0.50;;;0.40;;
15354;SDS011;7777;52.254;9.618;2023-08-01T02:45:12;0.27;;;0.27;;
15354;SDS011;7777;52.254;9.618;2023-08-01T02:47:38;1.90;;;0.40;;
15354;SDS011;7777;52.254;9.618;2023-08-01T02:50:04;4.80;;;0.50;;
15354;SDS011;7777;52.254;9.618;2023-08-01T02:52:31;0.20;;;0.20;;
15354;SDS011;7777;52.254;9.618;2023-08-01T02:54:56;2.63;;;0.40;;
15354;SDS011;7777;52.254;9.618;2023-08-01T02:57:22;0.83;;;0.37;;
15354;SDS011;7777;52.254;9.618;2023-08-01T02:59:48;0.40;;;0.40;;
15354;SDS011;7777;52.254;9.618;2023-08-01T03:02:14;0.30;;;0.30;;
15354;SDS011;7777;52.254;9.618;2023-08-01T03:04:40;2.27;;;0.53;;
15354;SDS011;7777;52.254;9.618;2023-08-01T03:07:05;0.33;;;0.33;;
15354;SDS011;7777;52.254;9.618;2023-08-01T03:09:34;13.80;;;0.80;;
15354;SDS011;7777;52.254;9.618;2023-08-01T03:12:00;0.70;;;0.40;;
15354;SDS011;7777;52.254;9.618;2023-08-01T03:14:26;0.20;;;0.20;;
15354;SDS011;7777;52.254;9.618;2023-08-01T03:16:51;0.67;;;0.30;;
15354;SDS011;7777;52.254;9.618;2023-08-01T03:19:17;3.73;;;0.30;;
15354;SDS011;7777;52.254;9.618;2023-08-01T03:21:43;1.87;;;0.20;;
15354;SDS011;7777;52.254;9.618;2023-08-01T03:24:09;0.53;;;0.50;;
15354;SDS011;7777;52.254;9.618;2023-08-01T03:26:35;0.60;;;0.37;;
15354;SDS011;7777;52.254;9.618;2023-08-01T03:29:01;0.40;;;0.40;;
15354;SDS011;7777;52.254;9.618;2023-08-01T03:31:28;0.20;;;0.20;;
15354;SDS011;7777;52.254;9.618;2023-08-01T03:33:54;0.50;;;0.47;;
15354;SDS011;7777;52.254;9.618;2023-08-01T03:36:20;1.43;;;0.30;;
15354;SDS011;7777;52.254;9.618;2023-08-01T03:38:46;1.53;;;0.40;;
15354;SDS011;7777;52.254;9.618;2023-08-01T03:41:12;0.67;;;0.40;;
15354;SDS011;7777;52.254;9.618;2023-08-01T03:43:38;2.73;;;0.50;;
15354;SDS011;7777;52.254;9.618;2023-08-01T03:46:04;0.37;;;0.37;;
15354;SDS011;7777;52.254;9.618;2023-08-01T03:48:30;4.70;;;0.53;;
15354;SDS011;7777;52.254;9.618;2023-08-01T03:50:56;2.87;;;0.50;;
15354;SDS011;7777;52.254;9.618;2023-08-01T03:53:26;2.23;;;0.60;;
15354;SDS011;7777;52.254;9.618;2023-08-01T03:55:51;1.67;;;0.47;;
15354;SDS011;7777;52.254;9.618;2023-08-01T03:58:17;1.20;;;0.30;;
15354;SDS011;7777;52.254;9.618;2023-08-01T04:00:43;1.00;;;0.83;;
15354;SDS011;7777;52.254;9.618;2023-08-01T04:03:08;2.20;;;0.50;;
15354;SDS011;7777;52.254;9.618;2023-08-01T04:05:34;0.67;;;0.40;;
15354;SDS011;7777;52.254;9.618;2023-08-01T04:08:00;1.33;;;0.60;;
15354;SDS011;7777;52.254;9.618;2023-08-01T04:10:26;2.10;;;0.47;;
15354;SDS011;7777;52.254;9.618;2023-08-01T04:12:52;0.50;;;0.40;;
15354;SDS011;7777;52.254;9.618;2023-08-01T04:15:18;0.40;;;0.40;;
15354;SDS011;7777;52.254;9.618;2023-08-01T04:17:44;0.33;;;0.33;;
15354;SDS011;7777;52.254;9.618;2023-08-01T04:20:09;2.00;;;0.60;;
15354;SDS011;7777;52.254;9.618;2023-08-01T04:22:35;0.80;;;0.60;;
15354;SDS011;7777;52.254;9.618;2023-08-01T04:25:01;1.03;;;0.50;;
15354;SDS011;7777;52.254;9.618;2023-08-01T04:27:27;0.93;;;0.53;;
15354;SDS011;7777;52.254;9.618;2023-08-01T04:29:54;2.80;;;0.87;;
15354;SDS011;7777;52.254;9.618;2023-08-01T04:32:20;2.43;;;0.50;;
15354;SDS011;7777;52.254;9.618;2023-08-01T04:34:46;1.33;;;0.43;;
15354;SDS011;7777;52.254;9.618;2023-08-01T04:37:12;0.60;;;0.47;;
15354;SDS011;7777;52.254;9.618;2023-08-01T04:39:38;3.13;;;0.70;;
15354;SDS011;7777;52.254;9.618;2023-08-01T04:42:04;0.70;;;0.47;;
15354;SDS011;7777;52.254;9.618;2023-08-01T04:44:30;0.60;;;0.50;;
15354;SDS011;7777;52.254;9.618;2023-08-01T04:46:56;0.67;;;0.57;;
15354;SDS011;7777;52.254;9.618;2023-08-01T04:49:22;1.40;;;0.50;;
15354;SDS011;7777;52.254;9.618;2023-08-01T04:51:49;0.60;;;0.50;;
15354;SDS011;7777;52.254;9.618;2023-08-01T04:54:15;3.10;;;0.50;;
15354;SDS011;7777;52.254;9.618;2023-08-01T04:56:41;0.60;;;0.40;;
15354;SDS011;7777;52.254;9.618;2023-08-01T04:59:07;0.43;;;0.43;;
15354;SDS011;7777;52.254;9.618;2023-08-01T05:01:33;2.57;;;0.67;;
15354;SDS011;7777;52.254;9.618;2023-08-01T05:03:58;0.53;;;0.53;;
15354;SDS011;7777;52.254;9.618;2023-08-01T05:06:24;1.73;;;0.77;;
15354;SDS011;7777;52.254;9.618;2023-08-01T05:08:50;1.43;;;0.70;;
15354;SDS011;7777;52.254;9.618;2023-08-01T05:11:16;3.27;;;0.83;;
15354;SDS011;7777;52.254;9.618;2023-08-01T05:13:41;4.33;;;0.77;;
15354;SDS011;7777;52.254;9.618;2023-08-01T05:16:07;0.63;;;0.50;;
15354;SDS011;7777;52.254;9.618;2023-08-01T05:18:33;1.03;;;0.50;;
15354;SDS011;7777;52.254;9.618;2023-08-01T05:20:58;2.50;;;0.70;;
15354;SDS011;7777;52.254;9.618;2023-08-01T05:23:24;0.70;;;0.60;;
15354;SDS011;7777;52.254;9.618;2023-08-01T05:25:50;0.70;;;0.60;;
15354;SDS011;7777;52.254;9.618;2023-08-01T05:28:15;2.30;;;0.40;;
15354;SDS011;7777;52.254;9.618;2023-08-01T05:30:41;3.53;;;1.17;;
15354;SDS011;7777;52.254;9.618;2023-08-01T05:33:07;2.10;;;0.90;;
15354;SDS011;7777;52.254;9.618;2023-08-01T05:35:32;1.10;;;0.70;;
15354;SDS011;7777;52.254;9.618;2023-08-01T05:37:58;3.90;;;0.80;;
15354;SDS011;7777;52.254;9.618;2023-08-01T05:40:25;1.87;;;1.17;;
15354;SDS011;7777;52.254;9.618;2023-08-01T05:42:50;1.63;;;0.80;;
15354;SDS011;7777;52.254;9.618;2023-08-01T05:45:16;1.23;;;1.00;;
15354;SDS011;7777;52.254;9.618;2023-08-01T05:47:42;4.40;;;0.90;;
15354;SDS011;7777;52.254;9.618;2023-08-01T05:50:08;1.93;;;0.63;;
15354;SDS011;7777;52.254;9.618;2023-08-01T05:52:34;0.83;;;0.73;;
15354;SDS011;7777;52.254;9.618;2023-08-01T05:55:00;2.60;;;0.80;;
15354;SDS011;7777;52.254;9.618;2023-08-01T05:57:25;5.37;;;1.07;;
15354;SDS011;7777;52.254;9.618;2023-08-01T05:59:51;2.67;;;0.93;;
15354;SDS011;7777;52.254;9.618;2023-08-01T06:02:17;1.57;;;1.23;;
15354;SDS011;7777;52.254;9.618;2023-08-01T06:04:42;1.80;;;1.20;;
15354;SDS011;7777;52.254;9.618;2023-08-01T06:07:08;3.87;;;1.30;;
15354;SDS011;7777;52.254;9.618;2023-08-01T06:09:34;2.23;;;1.20;;
15354;SDS011;7777;52.254;9.618;2023-08-01T06:11:59;2.27;;;1.00;;
15354;SDS011;7777;52.254;9.618;2023-08-01T06:14:25;3.60;;;1.40;;
15354;SDS011;7777;52.254;9.618;2023-08-01T06:16:51;2.43;;;1.23;;
15354;SDS011;7777;52.254;9.618;2023-08-01T06:19:17;2.10;;;1.43;;
15354;SDS011;7777;52.254;9.618;2023-08-01T06:21:42;3.33;;;1.40;;
15354;SDS011;7777;52.254;9.618;2023-08-01T06:24:08;2.67;;;1.33;;
15354;SDS011;7777;52.254;9.618;2023-08-01T06:26:35;4.80;;;1.57;;
15354;SDS011;7777;52.254;9.618;2023-08-01T06:29:01;1.57;;;1.37;;
15354;SDS011;7777;52.254;9.618;2023-08-01T06:31:27;7.93;;;2.03;;
15354;SDS011;7777;52.254;9.618;2023-08-01T06:33:52;3.73;;;1.93;;
15354;SDS011;7777;52.254;9.618;2023-08-01T06:36:18;4.73;;;1.80;;
15354;SDS011;7777;52.254;9.618;2023-08-01T06:38:44;3.37;;;1.77;;
15354;SDS011;7777;52.254;9.618;2023-08-01T06:41:10;2.90;;;2.10;;
15354;SDS011;7777;52.254;9.618;2023-08-01T06:43:35;1.90;;;1.70;;
15354;SDS011;7777;52.254;9.618;2023-08-01T06:46:03;4.93;;;2.93;;
15354;SDS011;7777;52.254;9.618;2023-08-01T06:48:30;2.43;;;1.60;;
15354;SDS011;7777;52.254;9.618;2023-08-01T06:50:59;2.27;;;1.70;;
15354;SDS011;7777;52.254;9.618;2023-08-01T06:53:26;3.37;;;1.90;;
15354;SDS011;7777;52.254;9.618;2023-08-01T06:55:52;3.90;;;2.67;;
15354;SDS011;7777;52.254;9.618;2023-08-01T06:58:17;4.63;;;2.20;;
15354;SDS011;7777;52.254;9.618;2023-08-01T07:00:45;3.70;;;2.60;;
15354;SDS011;7777;52.254;9.618;2023-08-01T07:03:11;3.77;;;2.67;;
15354;SDS011;7777;52.254;9.618;2023-08-01T07:05:36;6.80;;;2.90;;
15354;SDS011;7777;52.254;9.618;2023-08-01T07:08:02;6.73;;;2.83;;
15354;SDS011;7777;52.254;9.618;2023-08-01T07:10:29;5.23;;;3.27;;
15354;SDS011;7777;52.254;9.618;2023-08-01T07:12:55;7.03;;;3.90;;
15354;SDS011;7777;52.254;9.618;2023-08-01T07:15:21;6.27;;;3.80;;
15354;SDS011;7777;52.254;9.618;2023-08-01T07:17:48;6.50;;;4.00;;
15354;SDS011;7777;52.254;9.618;2023-08-01T07:20:13;9.13;;;3.53;;
15354;SDS011;7777;52.254;9.618;2023-08-01T07:22:40;8.93;;;3.77;;
15354;SDS011;7777;52.254;9.618;2023-08-01T07:25:05;8.30;;;4.70;;
15354;SDS011;7777;52.254;9.618;2023-08-01T07:27:31;5.97;;;3.60;;
15354;SDS011;7777;52.254;9.618;2023-08-01T07:29:57;7.40;;;3.87;;
15354;SDS011;7777;52.254;9.618;2023-08-01T07:32:23;9.73;;;4.30;;
15354;SDS011;7777;52.254;9.618;2023-08-01T07:34:49;6.13;;;4.53;;
15354;SDS011;7777;52.254;9.618;2023-08-01T07:37:14;6.40;;;4.20;;
15354;SDS011;7777;52.254;9.618;2023-08-01T07:39:40;8.57;;;4.40;;
15354;SDS011;7777;52.254;9.618;2023-08-01T07:42:06;5.47;;;3.67;;
15354;SDS011;7777;52.254;9.618;2023-08-01T07:44:31;6.97;;;3.93;;
15354;SDS011;7777;52.254;9.618;2023-08-01T07:46:57;8.00;;;3.93;;
15354;SDS011;7777;52.254;9.618;2023-08-01T07:49:23;9.03;;;4.30;;
15354;SDS011;7777;52.254;9.618;2023-08-01T07:51:48;8.93;;;3.90;;
15354;SDS011;7777;52.254;9.618;2023-08-01T07:54:14;6.20;;;3.83;;
15354;SDS011;7777;52.254;9.618;2023-08-01T07:56:40;8.83;;;4.10;;
15354;SDS011;7777;52.254;9.618;2023-08-01T07:59:06;10.83;;;5.50;;
15354;SDS011;7777;52.254;9.618;2023-08-01T08:01:31;8.90;;;4.73;;
15354;SDS011;7777;52.254;9.618;2023-08-01T08:03:57;8.43;;;4.33;;
15354;SDS011;7777;52.254;9.618;2023-08-01T08:06:23;8.33;;;4.70;;
15354;SDS011;7777;52.254;9.618;2023-08-01T08:08:49;8.03;;;4.27;;
15354;SDS011;7777;52.254;9.618;2023-08-01T08:11:15;10.80;;;4.53;;
15354;SDS011;7777;52.254;9.618;2023-08-01T08:13:41;9.93;;;4.10;;
15354;SDS011;7777;52.254;9.618;2023-08-01T08:16:07;8.07;;;4.07;;
15354;SDS011;7777;52.254;9.618;2023-08-01T08:18:33;12.83;;;5.10;;
15354;SDS011;7777;52.254;9.618;2023-08-01T08:20:59;7.40;;;4.03;;
15354;SDS011;7777;52.254;9.618;2023-08-01T08:23:24;7.80;;;3.87;;
15354;SDS011;7777;52.254;9.618;2023-08-01T08:25:50;11.90;;;4.60;;
15354;SDS011;7777;52.254;9.618;2023-08-01T08:28:20;8.47;;;4.07;;
15354;SDS011;7777;52.254;9.618;2023-08-01T08:30:54;11.07;;;4.53;;
15354;SDS011;7777;52.254;9.618;2023-08-01T08:33:20;8.47;;;5.30;;
15354;SDS011;7777;52.254;9.618;2023-08-01T08:35:46;6.93;;;3.83;;
15354;SDS011;7777;52.254;9.618;2023-08-01T08:38:12;9.53;;;4.43;;
15354;SDS011;7777;52.254;9.618;2023-08-01T08:40:40;17.07;;;4.67;;
15354;SDS011;7777;52.254;9.618;2023-08-01T08:43:09;12.63;;;4.43;;
15354;SDS011;7777;52.254;9.618;2023-08-01T08:45:35;8.87;;;4.03;;
15354;SDS011;7777;52.254;9.618;2023-08-01T08:48:09;6.20;;;3.40;;
15354;SDS011;7777;52.254;9.618;2023-08-01T08:50:38;8.37;;;3.13;;
15354;SDS011;7777;52.254;9.618;2023-08-01T08:53:05;4.60;;;3.00;;
15354;SDS011;7777;52.254;9.618;2023-08-01T08:55:37;7.60;;;3.20;;
15354;SDS011;7777;52.254;9.618;2023-08-01T08:58:06;7.37;;;3.20;;
15354;SDS011;7777;52.254;9.618;2023-08-01T09:00:35;8.43;;;2.90;;
15354;SDS011;7777;52.254;9.618;2023-08-01T09:03:02;4.90;;;2.77;;
15354;SDS011;7777;52.254;9.618;2023-08-01T09:05:31;6.73;;;3.07;;
15354;SDS011;7777;52.254;9.618;2023-08-01T09:08:06;3.23;;;2.20;;
15354;SDS011;7777;52.254;9.618;2023-08-01T09:10:38;5.93;;;2.90;;
15354;SDS011;7777;52.254;9.618;2023-08-01T09:13:03;5.07;;;2.67;;
15354;SDS011;7777;52.254;9.618;2023-08-01T09:15:33;5.13;;;2.40;;
15354;SDS011;7777;52.254;9.618;2023-08-01T09:17:59;6.27;;;2.70;;
15354;SDS011;7777;52.254;9.618;2023-08-01T09:20:26;7.50;;;2.67;;
15354;SDS011;7777;52.254;9.618;2023-08-01T09:22:52;6.07;;;2.33;;
15354;SDS011;7777;52.254;9.618;2023-08-01T09:25:18;6.20;;;2.30;;
15354;SDS011;7777;52.254;9.618;2023-08-01T09:27:44;3.63;;;2.37;;
15354;SDS011;7777;52.254;9.618;2023-08-01T09:30:11;5.20;;;2.40;;
15354;SDS011;7777;52.254;9.618;2023-08-01T09:32:50;4.33;;;2.27;;
15354;SDS011;7777;52.254;9.618;2023-08-01T09:35:17;5.43;;;2.03;;
15354;SDS011;7777;52.254;9.618;2023-08-01T09:37:43;7.17;;;2.50;;
15354;SDS011;7777;52.254;9.618;2023-08-01T09:40:09;6.80;;;2.40;;
15354;SDS011;7777;52.254;9.618;2023-08-01T09:42:39;4.77;;;2.40;;
15354;SDS011;7777;52.254;9.618;2023-08-01T09:45:11;5.43;;;2.33;;
15354;SDS011;7777;52.254;9.618;2023-08-01T09:47:41;8.93;;;2.57;;
15354;SDS011;7777;52.254;9.618;2023-08-01T09:50:09;5.63;;;2.60;;
15354;SDS011;7777;52.254;9.618;2023-08-01T09:52:36;5.57;;;2.77;;
15354;SDS011;7777;52.254;9.618;2023-08-01T09:55:02;5.53;;;2.37;;
15354;SDS011;7777;52.254;9.618;2023-08-01T09:57:29;5.43;;;2.70;;
15354;SDS011;7777;52.254;9.618;2023-08-01T09:59:56;6.17;;;2.53;;
15354;SDS011;7777;52.254;9.618;2023-08-01T10:02:24;5.60;;;2.80;;
15354;SDS011;7777;52.254;9.618;2023-08-01T10:04:56;5.53;;;2.30;;
15354;SDS011;7777;52.254;9.618;2023-08-01T10:07:23;6.20;;;2.67;;
15354;SDS011;7777;52.254;9.618;2023-08-01T10:09:53;3.70;;;2.13;;
15354;SDS011;7777;52.254;9.618;2023-08-01T10:12:22;4.33;;;2.13;;
15354;SDS011;7777;52.254;9.618;2023-08-01T10:14:54;10.03;;;2.67;;
15354;SDS011;7777;52.254;9.618;2023-08-01T10:17:21;4.47;;;2.17;;
15354;SDS011;7777;52.254;9.618;2023-08-01T10:19:48;8.80;;;2.30;;
15354;SDS011;7777;52.254;9.618;2023-08-01T10:22:16;8.60;;;2.53;;
15354;SDS011;7777;52.254;9.618;2023-08-01T10:24:43;6.20;;;2.43;;
15354;SDS011;7777;52.254;9.618;2023-08-01T10:27:14;8.80;;;2.10;;
15354;SDS011;7777;52.254;9.618;2023-08-01T10:29:44;6.07;;;2.53;;
15354;SDS011;7777;52.254;9.618;2023-08-01T10:32:11;6.67;;;2.40;;
15354;SDS011;7777;52.254;9.618;2023-08-01T10:34:36;4.80;;;2.27;;
15354;SDS011;7777;52.254;9.618;2023-08-01T10:37:02;4.57;;;2.67;;
15354;SDS011;7777;52.254;9.618;2023-08-01T10:39:29;6.17;;;2.47;;
15354;SDS011;7777;52.254;9.618;2023-08-01T10:41:58;8.43;;;2.50;;
15354;SDS011;7777;52.254;9.618;2023-08-01T10:44:28;6.50;;;2.07;;
15354;SDS011;7777;52.254;9.618;2023-08-01T10:47:02;6.23;;;2.30;;
15354;SDS011;7777;52.254;9.618;2023-08-01T10:49:39;3.67;;;1.67;;
15354;SDS011;7777;52.254;9.618;2023-08-01T10:52:26;5.93;;;2.30;;
15354;SDS011;7777;52.254;9.618;2023-08-01T10:54:56;5.40;;;2.10;;
15354;SDS011;7777;52.254;9.618;2023-08-01T10:57:23;5.87;;;1.83;;
15354;SDS011;7777;52.254;9.618;2023-08-01T10:59:49;5.73;;;1.83;;
15354;SDS011;7777;52.254;9.618;2023-08-01T11:02:24;5.00;;;1.97;;
15354;SDS011;7777;52.254;9.618;2023-08-01T11:04:58;8.77;;;2.40;;
15354;SDS011;7777;52.254;9.618;2023-08-01T11:07:27;5.40;;;2.07;;
15354;SDS011;7777;52.254;9.618;2023-08-01T11:12:34;5.17;;;2.10;;
15354;SDS011;7777;52.254;9.618;2023-08-01T11:15:05;7.10;;;2.10;;
15354;SDS011;7777;52.254;9.618;2023-08-01T11:17:37;4.20;;;1.47;;
15354;SDS011;7777;52.254;9.618;2023-08-01T11:20:04;3.73;;;1.87;;
15354;SDS011;7777;52.254;9.618;2023-08-01T11:22:37;4.37;;;1.70;;
15354;SDS011;7777;52.254;9.618;2023-08-01T11:25:13;9.93;;;2.43;;
15354;SDS011;7777;52.254;9.618;2023-08-01T11:27:39;4.10;;;1.83;;
15354;SDS011;7777;52.254;9.618;2023-08-01T11:30:05;4.60;;;2.30;;
15354;SDS011;7777;52.254;9.618;2023-08-01T11:32:32;4.83;;;1.87;;
15354;SDS011;7777;52.254;9.618;2023-08-01T11:35:00;3.03;;;1.60;;
15354;SDS011;7777;52.254;9.618;2023-08-01T11:37:26;3.87;;;1.93;;
15354;SDS011;7777;52.254;9.618;2023-08-01T11:39:52;5.57;;;2.00;;
15354;SDS011;7777;52.254;9.618;2023-08-01T11:42:18;4.50;;;2.17;;
15354;SDS011;7777;52.254;9.618;2023-08-01T11:44:44;3.47;;;1.70;;
15354;SDS011;7777;52.254;9.618;2023-08-01T11:47:13;3.63;;;1.80;;
15354;SDS011;7777;52.254;9.618;2023-08-01T11:49:45;5.17;;;2.10;;
15354;SDS011;7777;52.254;9.618;2023-08-01T11:52:27;3.80;;;2.17;;
15354;SDS011;7777;52.254;9.618;2023-08-01T11:54:54;4.53;;;2.20;;
15354;SDS011;7777;52.254;9.618;2023-08-01T11:57:21;4.40;;;2.27;;
15354;SDS011;7777;52.254;9.618;2023-08-01T11:59:47;4.77;;;2.27;;
15354;SDS011;7777;52.254;9.618;2023-08-01T12:02:21;9.97;;;2.67;;
15354;SDS011;7777;52.254;9.618;2023-08-01T12:04:51;6.23;;;2.27;;
15354;SDS011;7777;52.254;9.618;2023-08-01T12:07:18;4.83;;;2.47;;
15354;SDS011;7777;52.254;9.618;2023-08-01T12:10:00;3.23;;;1.93;;
15354;SDS011;7777;52.254;9.618;2023-08-01T12:12:27;5.40;;;2.40;;
15354;SDS011;7777;52.254;9.618;2023-08-01T12:14:53;5.57;;;2.43;;
15354;SDS011;7777;52.254;9.618;2023-08-01T12:17:20;5.77;;;2.77;;
15354;SDS011;7777;52.254;9.618;2023-08-01T12:19:47;5.40;;;2.60;;
15354;SDS011;7777;52.254;9.618;2023-08-01T12:22:13;5.80;;;2.40;;
15354;SDS011;7777;52.254;9.618;2023-08-01T12:24:39;4.77;;;2.70;;
15354;SDS011;7777;52.254;9.618;2023-08-01T12:27:06;7.47;;;2.40;;
15354;SDS011;7777;52.254;9.618;2023-08-01T12:29:33;3.97;;;2.20;;
15354;SDS011;7777;52.254;9.618;2023-08-01T12:32:00;6.37;;;2.73;;
15354;SDS011;7777;52.254;9.618;2023-08-01T12:34:27;5.93;;;2.60;;
15354;SDS011;7777;52.254;9.618;2023-08-01T12:36:53;7.97;;;2.87;;
15354;SDS011;7777;52.254;9.618;2023-08-01T12:39:19;3.50;;;1.93;;
15354;SDS011;7777;52.254;9.618;2023-08-01T12:41:44;5.00;;;2.53;;
15354;SDS011;7777;52.254;9.618;2023-08-01T12:44:10;5.80;;;2.60;;
15354;SDS011;7777;52.254;9.618;2023-08-01T12:46:36;7.77;;;2.63;;
15354;SDS011;7777;52.254;9.618;2023-08-01T12:49:02;6.53;;;2.67;;
15354;SDS011;7777;52.254;9.618;2023-08-01T12:51:28;6.30;;;2.77;;
15354;SDS011;7777;52.254;9.618;2023-08-01T12:53:53;5.43;;;2.13;;
15354;SDS011;7777;52.254;9.618;2023-08-01T12:56:19;4.97;;;2.37;;
15354;SDS011;7777;52.254;9.618;2023-08-01T12:58:45;4.90;;;2.20;;
15354;SDS011;7777;52.254;9.618;2023-08-01T13:01:11;4.57;;;2.03;;
15354;SDS011;7777;52.254;9.618;2023-08-01T13:03:36;7.60;;;2.20;;
15354;SDS011;7777;52.254;9.618;2023-08-01T13:06:02;5.13;;;2.43;;
15354;SDS011;7777;52.254;9.618;2023-08-01T13:08:28;4.00;;;2.30;;
15354;SDS011;7777;52.254;9.618;2023-08-01T13:10:54;4.63;;;2.27;;
15354;SDS011;7777;52.254;9.618;2023-08-01T13:13:19;4.90;;;2.10;;
15354;SDS011;7777;52.254;9.618;2023-08-01T13:15:45;3.73;;;2.13;;
15354;SDS011;7777;52.254;9.618;2023-08-01T13:18:13;6.67;;;2.40;;
15354;SDS011;7777;52.254;9.618;2023-08-01T13:20:39;3.67;;;1.60;;
15354;SDS011;7777;52.254;9.618;2023-08-01T13:23:04;3.93;;;1.90;;
15354;SDS011;7777;52.254;9.618;2023-08-01T13:25:30;4.50;;;1.90;;
15354;SDS011;7777;52.254;9.618;2023-08-01T13:27:56;3.87;;;1.87;;
15354;SDS011;7777;52.254;9.618;2023-08-01T13:30:22;2.33;;;1.70;;
15354;SDS011;7777;52.254;9.618;2023-08-01T13:32:47;6.00;;;2.10;;
15354;SDS011;7777;52.254;9.618;2023-08-01T13:35:13;5.87;;;2.40;;
15354;SDS011;7777;52.254;9.618;2023-08-01T13:37:40;8.57;;;2.37;;
15354;SDS011;7777;52.254;9.618;2023-08-01T13:40:06;5.90;;;2.50;;
15354;SDS011;7777;52.254;9.618;2023-08-01T13:42:32;8.07;;;2.97;;
15354;SDS011;7777;52.254;9.618;2023-08-01T13:44:58;5.77;;;2.07;;
15354;SDS011;7777;52.254;9.618;2023-08-01T13:47:25;4.63;;;1.43;;
15354;SDS011;7777;52.254;9.618;2023-08-01T13:49:50;5.30;;;2.67;;
15354;SDS011;7777;52.254;9.618;2023-08-01T13:52:16;3.53;;;2.43;;
15354;SDS011;7777;52.254;9.618;2023-08-01T13:54:42;5.27;;;1.90;;
15354;SDS011;7777;52.254;9.618;2023-08-01T13:57:07;4.33;;;2.20;;
15354;SDS011;7777;52.254;9.618;2023-08-01T13:59:33;4.47;;;2.10;;
15354;SDS011;7777;52.254;9.618;2023-08-01T14:01:59;4.13;;;1.87;;
15354;SDS011;7777;52.254;9.618;2023-08-01T14:04:25;3.97;;;1.83;;
15354;SDS011;7777;52.254;9.618;2023-08-01T14:06:51;4.23;;;1.90;;
15354;SDS011;7777;52.254;9.618;2023-08-01T14:09:16;3.33;;;1.63;;
15354;SDS011;7777;52.254;9.618;2023-08-01T14:11:42;5.00;;;1.63;;
15354;SDS011;7777;52.254;9.618;2023-08-01T14:14:08;4.53;;;2.13;;
15354;SDS011;7777;52.254;9.618;2023-08-01T14:16:34;3.70;;;2.00;;
15354;SDS011;7777;52.254;9.618;2023-08-01T14:18:59;3.07;;;1.20;;
15354;SDS011;7777;52.254;9.618;2023-08-01T14:21:25;4.03;;;1.50;;
15354;SDS011;7777;52.254;9.618;2023-08-01T14:23:51;3.23;;;1.20;;
15354;SDS011;7777;52.254;9.618;2023-08-01T14:26:16;4.87;;;1.30;;
15354;SDS011;7777;52.254;9.618;2023-08-01T14:28:42;2.53;;;1.30;;
15354;SDS011;7777;52.254;9.618;2023-08-01T14:31:08;2.00;;;1.10;;
15354;SDS011;7777;52.254;9.618;2023-08-01T14:33:34;4.77;;;1.27;;
15354;SDS011;7777;52.254;9.618;2023-08-01T14:35:59;4.13;;;1.10;;
15354;SDS011;7777;52.254;9.618;2023-08-01T14:38:25;3.17;;;1.00;;
15354;SDS011;7777;52.254;9.618;2023-08-01T14:40:52;2.93;;;1.50;;
15354;SDS011;7777;52.254;9.618;2023-08-01T14:43:18;2.07;;;0.83;;
15354;SDS011;7777;52.254;9.618;2023-08-01T14:45:44;2.73;;;1.20;;
15354;SDS011;7777;52.254;9.618;2023-08-01T14:48:10;3.17;;;1.10;;
15354;SDS011;7777;52.254;9.618;2023-08-01T14:50:37;3.60;;;1.20;;
15354;SDS011;7777;52.254;9.618;2023-08-01T14:53:03;3.17;;;1.30;;
15354;SDS011;7777;52.254;9.618;2023-08-01T14:55:31;2.00;;;1.10;;
15354;SDS011;7777;52.254;9.618;2023-08-01T14:57:57;3.07;;;1.33;;
15354;SDS011;7777;52.254;9.618;2023-08-01T15:00:23;1.70;;;0.90;;
15354;SDS011;7777;52.254;9.618;2023-08-01T15:02:49;4.13;;;1.50;;